sensor_id;sensor_type;location;lat;lon;timestamp;P1;durP1;ratioP1;P2;durP2;ratioP2
4808;SDS011;2418;49.930;8.606;2022-07-10T00:01:32;4.28;;;3.90;;
4808;SDS011;2418;49.930;8.606;2022-07-10T00:03:58;5.60;;;3.78;;
4808;SDS011;2418;49.930;8.606;2022-07-10T00:06:24;3.60;;;3.50;;
4808;SDS011;2418;49.930;8.606;2022-07-10T00:08:50;4.00;;;3.60;;
4808;SDS011;2418;49.930;8.606;2022-07-10T00:11:16;5.88;;;3.20;;
4808;SDS011;2418;49.930;8.606;2022-07-10T00:13:42;5.72;;;3.10;;
4808;SDS011;2418;49.930;8.606;2022-07-10T00:16:08;3.50;;;2.90;;
4808;SDS011;2418;49.930;8.606;2022-07-10T00:18:34;4.60;;;3.50;;
4808;SDS011;2418;49.930;8.606;2022-07-10T00:21:00;5.38;;;4.18;;
4808;SDS011;2418;49.930;8.606;2022-07-10T00:23:26;3.95;;;3.75;;
4808;SDS011;2418;49.930;8.606;2022-07-10T00:25:52;5.68;;;4.35;;
4808;SDS011;2418;49.930;8.606;2022-07-10T00:28:19;5.82;;;5.32;;
4808;SDS011;2418;49.930;8.606;2022-07-10T00:30:45;8.90;;;6.30;;
4808;SDS011;2418;49.930;8.606;2022-07-10T00:33:11;7.53;;;6.57;;
4808;SDS011;2418;49.930;8.606;2022-07-10T00:35:37;7.05;;;6.45;;
4808;SDS011;2418;49.930;8.606;2022-07-10T00:38:03;7.15;;;6.65;;
4808;SDS011;2418;49.930;8.606;2022-07-10T00:40:28;9.77;;;6.43;;
4808;SDS011;2418;49.930;8.606;2022-07-10T00:42:54;6.73;;;6.10;;
4808;SDS011;2418;49.930;8.606;2022-07-10T00:45:20;12.63;;;6.68;;
4808;SDS011;2418;49.930;8.606;2022-07-10T00:47:46;5.85;;;5.45;;
4808;SDS011;2418;49.930;8.606;2022-07-10T00:50:12;6.60;;;5.90;;
4808;SDS011;2418;49.930;8.606;2022-07-10T00:52:38;5.85;;;5.45;;
4808;SDS011;2418;49.930;8.606;2022-07-10T00:55:05;6.88;;;6.20;;
4808;SDS011;2418;49.930;8.606;2022-07-10T00:57:31;6.10;;;5.70;;
4808;SDS011;2418;49.930;8.606;2022-07-10T00:59:58;6.00;;;5.50;;
4808;SDS011;2418;49.930;8.606;2022-07-10T01:02:24;6.60;;;5.10;;
4808;SDS011;2418;49.930;8.606;2022-07-10T01:04:50;5.73;;;5.13;;
4808;SDS011;2418;49.930;8.606;2022-07-10T01:07:16;5.87;;;5.37;;
4808;SDS011;2418;49.930;8.606;2022-07-10T01:09:42;6.15;;;5.55;;
4808;SDS011;2418;49.930;8.606;2022-07-10T01:12:09;4.70;;;4.40;;
4808;SDS011;2418;49.930;8.606;2022-07-10T01:14:36;5.35;;;4.15;;
4808;SDS011;2418;49.930;8.606;2022-07-10T01:17:04;5.32;;;4.00;;
4808;SDS011;2418;49.930;8.606;2022-07-10T01:19:31;3.95;;;3.70;;
4808;SDS011;2418;49.930;8.606;2022-07-10T01:21:57;4.95;;;4.18;;
4808;SDS011;2418;49.930;8.606;2022-07-10T01:24:23;4.57;;;3.60;;
4808;SDS011;2418;49.930;8.606;2022-07-10T01:26:49;4.28;;;3.75;;
4808;SDS011;2418;49.930;8.606;2022-07-10T01:29:15;4.30;;;4.00;;
4808;SDS011;2418;49.930;8.606;2022-07-10T01:31:41;4.32;;;3.83;;
4808;SDS011;2418;49.930;8.606;2022-07-10T01:34:07;9.30;;;4.10;;
4808;SDS011;2418;49.930;8.606;2022-07-10T01:36:34;4.60;;;4.18;;
4808;SDS011;2418;49.930;8.606;2022-07-10T01:39:00;5.47;;;4.10;;
4808;SDS011;2418;49.930;8.606;2022-07-10T01:41:26;4.30;;;4.00;;
4808;SDS011;2418;49.930;8.606;2022-07-10T01:43:52;3.90;;;3.70;;
4808;SDS011;2418;49.930;8.606;2022-07-10T01:46:19;4.20;;;4.00;;
4808;SDS011;2418;49.930;8.606;2022-07-10T01:48:45;3.40;;;3.10;;
4808;SDS011;2418;49.930;8.606;2022-07-10T01:51:11;3.80;;;3.40;;
4808;SDS011;2418;49.930;8.606;2022-07-10T01:53:38;4.90;;;3.67;;
4808;SDS011;2418;49.930;8.606;2022-07-10T01:56:05;4.80;;;4.40;;
4808;SDS011;2418;49.930;8.606;2022-07-10T01:58:31;7.68;;;3.95;;
4808;SDS011;2418;49.930;8.606;2022-07-10T02:00:57;4.22;;;3.90;;
4808;SDS011;2418;49.930;8.606;2022-07-10T02:03:23;5.70;;;3.70;;
4808;SDS011;2418;49.930;8.606;2022-07-10T02:06:08;4.03;;;3.80;;
4808;SDS011;2418;49.930;8.606;2022-07-10T02:08:34;4.30;;;3.90;;
4808;SDS011;2418;49.930;8.606;2022-07-10T02:11:00;4.28;;;3.97;;
4808;SDS011;2418;49.930;8.606;2022-07-10T02:13:26;5.15;;;3.95;;
4808;SDS011;2418;49.930;8.606;2022-07-10T02:15:53;4.35;;;3.95;;
4808;SDS011;2418;49.930;8.606;2022-07-10T02:18:19;4.03;;;3.63;;
4808;SDS011;2418;49.930;8.606;2022-07-10T02:20:45;4.15;;;3.60;;
4808;SDS011;2418;49.930;8.606;2022-07-10T02:23:11;3.70;;;3.60;;
4808;SDS011;2418;49.930;8.606;2022-07-10T02:25:37;3.88;;;3.55;;
4808;SDS011;2418;49.930;8.606;2022-07-10T02:28:03;4.55;;;3.40;;
4808;SDS011;2418;49.930;8.606;2022-07-10T02:30:29;3.60;;;3.40;;
4808;SDS011;2418;49.930;8.606;2022-07-10T02:32:55;3.78;;;3.58;;
4808;SDS011;2418;49.930;8.606;2022-07-10T02:35:21;3.60;;;3.30;;
4808;SDS011;2418;49.930;8.606;2022-07-10T02:37:47;5.15;;;3.20;;
4808;SDS011;2418;49.930;8.606;2022-07-10T02:40:13;6.70;;;3.90;;
4808;SDS011;2418;49.930;8.606;2022-07-10T02:42:39;7.37;;;3.33;;
4808;SDS011;2418;49.930;8.606;2022-07-10T02:45:05;3.60;;;3.40;;
4808;SDS011;2418;49.930;8.606;2022-07-10T02:47:32;4.30;;;2.87;;
4808;SDS011;2418;49.930;8.606;2022-07-10T02:49:58;5.00;;;3.45;;
4808;SDS011;2418;49.930;8.606;2022-07-10T02:52:24;3.38;;;3.13;;
4808;SDS011;2418;49.930;8.606;2022-07-10T02:54:50;6.13;;;3.40;;
4808;SDS011;2418;49.930;8.606;2022-07-10T02:57:15;4.07;;;3.03;;
4808;SDS011;2418;49.930;8.606;2022-07-10T02:59:41;11.00;;;3.10;;
4808;SDS011;2418;49.930;8.606;2022-07-10T03:02:07;3.40;;;3.10;;
4808;SDS011;2418;49.930;8.606;2022-07-10T03:04:33;3.63;;;3.13;;
4808;SDS011;2418;49.930;8.606;2022-07-10T03:07:00;3.80;;;3.22;;
4808;SDS011;2418;49.930;8.606;2022-07-10T03:09:26;3.90;;;3.05;;
4808;SDS011;2418;49.930;8.606;2022-07-10T03:11:52;3.20;;;3.00;;
4808;SDS011;2418;49.930;8.606;2022-07-10T03:14:18;5.70;;;2.70;;
4808;SDS011;2418;49.930;8.606;2022-07-10T03:16:44;2.88;;;2.67;;
4808;SDS011;2418;49.930;8.606;2022-07-10T03:19:10;4.03;;;2.50;;
4808;SDS011;2418;49.930;8.606;2022-07-10T03:21:36;4.00;;;3.10;;
4808;SDS011;2418;49.930;8.606;2022-07-10T03:24:02;4.28;;;2.60;;
4808;SDS011;2418;49.930;8.606;2022-07-10T03:26:27;5.60;;;2.50;;
4808;SDS011;2418;49.930;8.606;2022-07-10T03:28:54;3.20;;;2.83;;
4808;SDS011;2418;49.930;8.606;2022-07-10T03:31:20;3.80;;;2.50;;
4808;SDS011;2418;49.930;8.606;2022-07-10T03:33:46;2.63;;;2.43;;
4808;SDS011;2418;49.930;8.606;2022-07-10T03:36:12;3.67;;;2.80;;
4808;SDS011;2418;49.930;8.606;2022-07-10T03:38:38;4.95;;;2.70;;
4808;SDS011;2418;49.930;8.606;2022-07-10T03:41:04;2.40;;;2.30;;
4808;SDS011;2418;49.930;8.606;2022-07-10T03:43:30;4.00;;;2.50;;
4808;SDS011;2418;49.930;8.606;2022-07-10T03:45:57;2.87;;;2.33;;
4808;SDS011;2418;49.930;8.606;2022-07-10T03:48:23;4.85;;;2.40;;
4808;SDS011;2418;49.930;8.606;2022-07-10T03:50:52;6.30;;;2.30;;
4808;SDS011;2418;49.930;8.606;2022-07-10T03:53:18;2.60;;;2.40;;
4808;SDS011;2418;49.930;8.606;2022-07-10T03:55:44;7.25;;;3.00;;
4808;SDS011;2418;49.930;8.606;2022-07-10T03:58:10;5.60;;;3.00;;
4808;SDS011;2418;49.930;8.606;2022-07-10T04:00:36;2.20;;;2.10;;
4808;SDS011;2418;49.930;8.606;2022-07-10T04:03:04;3.27;;;2.50;;
4808;SDS011;2418;49.930;8.606;2022-07-10T04:05:30;4.30;;;2.40;;
4808;SDS011;2418;49.930;8.606;2022-07-10T04:07:56;5.03;;;2.40;;
4808;SDS011;2418;49.930;8.606;2022-07-10T04:10:23;5.28;;;2.85;;
4808;SDS011;2418;49.930;8.606;2022-07-10T04:12:49;4.80;;;1.73;;
4808;SDS011;2418;49.930;8.606;2022-07-10T04:15:15;9.50;;;2.50;;
4808;SDS011;2418;49.930;8.606;2022-07-10T04:17:42;3.30;;;2.10;;
4808;SDS011;2418;49.930;8.606;2022-07-10T04:20:08;2.15;;;1.80;;
4808;SDS011;2418;49.930;8.606;2022-07-10T04:22:34;6.68;;;2.60;;
4808;SDS011;2418;49.930;8.606;2022-07-10T04:25:00;2.97;;;2.30;;
4808;SDS011;2418;49.930;8.606;2022-07-10T04:27:28;8.00;;;2.50;;
4808;SDS011;2418;49.930;8.606;2022-07-10T04:29:55;2.30;;;2.10;;
4808;SDS011;2418;49.930;8.606;2022-07-10T04:32:21;4.30;;;2.85;;
4808;SDS011;2418;49.930;8.606;2022-07-10T04:34:46;4.97;;;2.10;;
4808;SDS011;2418;49.930;8.606;2022-07-10T04:37:12;4.40;;;1.50;;
4808;SDS011;2418;49.930;8.606;2022-07-10T04:39:39;2.63;;;2.00;;
4808;SDS011;2418;49.930;8.606;2022-07-10T04:42:05;4.53;;;2.40;;
4808;SDS011;2418;49.930;8.606;2022-07-10T04:44:32;2.50;;;1.98;;
4808;SDS011;2418;49.930;8.606;2022-07-10T04:46:58;4.75;;;1.90;;
4808;SDS011;2418;49.930;8.606;2022-07-10T04:49:24;2.30;;;1.73;;
4808;SDS011;2418;49.930;8.606;2022-07-10T04:51:50;9.93;;;2.28;;
4808;SDS011;2418;49.930;8.606;2022-07-10T04:54:16;3.20;;;2.00;;
4808;SDS011;2418;49.930;8.606;2022-07-10T04:56:42;6.07;;;1.70;;
4808;SDS011;2418;49.930;8.606;2022-07-10T04:59:08;2.20;;;1.80;;
4808;SDS011;2418;49.930;8.606;2022-07-10T05:01:35;3.10;;;1.70;;
4808;SDS011;2418;49.930;8.606;2022-07-10T05:04:02;6.13;;;1.80;;
4808;SDS011;2418;49.930;8.606;2022-07-10T05:06:28;2.85;;;1.45;;
4808;SDS011;2418;49.930;8.606;2022-07-10T05:08:53;4.90;;;1.30;;
4808;SDS011;2418;49.930;8.606;2022-07-10T05:11:20;2.60;;;1.50;;
4808;SDS011;2418;49.930;8.606;2022-07-10T05:13:46;4.40;;;2.00;;
4808;SDS011;2418;49.930;8.606;2022-07-10T05:16:13;4.80;;;1.60;;
4808;SDS011;2418;49.930;8.606;2022-07-10T05:18:39;6.03;;;1.80;;
4808;SDS011;2418;49.930;8.606;2022-07-10T05:21:06;10.15;;;2.70;;
4808;SDS011;2418;49.930;8.606;2022-07-10T05:23:31;6.20;;;3.50;;
4808;SDS011;2418;49.930;8.606;2022-07-10T05:25:57;8.13;;;4.47;;
4808;SDS011;2418;49.930;8.606;2022-07-10T05:28:23;3.60;;;3.30;;
4808;SDS011;2418;49.930;8.606;2022-07-10T05:30:49;6.63;;;2.63;;
4808;SDS011;2418;49.930;8.606;2022-07-10T05:33:15;4.00;;;2.10;;
4808;SDS011;2418;49.930;8.606;2022-07-10T05:35:41;2.65;;;1.70;;
4808;SDS011;2418;49.930;8.606;2022-07-10T05:38:07;6.10;;;2.40;;
4808;SDS011;2418;49.930;8.606;2022-07-10T05:40:35;4.22;;;1.90;;
4808;SDS011;2418;49.930;8.606;2022-07-10T05:43:01;5.80;;;2.93;;
4808;SDS011;2418;49.930;8.606;2022-07-10T05:45:27;4.82;;;2.42;;
4808;SDS011;2418;49.930;8.606;2022-07-10T05:47:54;4.13;;;3.00;;
4808;SDS011;2418;49.930;8.606;2022-07-10T05:50:20;4.30;;;2.10;;
4808;SDS011;2418;49.930;8.606;2022-07-10T05:52:46;1.63;;;1.52;;
4808;SDS011;2418;49.930;8.606;2022-07-10T05:55:12;1.83;;;1.50;;
4808;SDS011;2418;49.930;8.606;2022-07-10T05:57:39;1.60;;;1.50;;
4808;SDS011;2418;49.930;8.606;2022-07-10T06:00:05;4.10;;;1.70;;
4808;SDS011;2418;49.930;8.606;2022-07-10T06:02:31;2.75;;;1.60;;
4808;SDS011;2418;49.930;8.606;2022-07-10T06:04:57;1.77;;;1.30;;
4808;SDS011;2418;49.930;8.606;2022-07-10T06:07:23;3.60;;;1.20;;
4808;SDS011;2418;49.930;8.606;2022-07-10T06:09:49;2.00;;;1.30;;
4808;SDS011;2418;49.930;8.606;2022-07-10T06:12:14;1.10;;;1.00;;
4808;SDS011;2418;49.930;8.606;2022-07-10T06:14:41;4.00;;;1.50;;
4808;SDS011;2418;49.930;8.606;2022-07-10T06:17:07;2.30;;;0.70;;
4808;SDS011;2418;49.930;8.606;2022-07-10T06:19:33;2.05;;;0.80;;
4808;SDS011;2418;49.930;8.606;2022-07-10T06:21:59;0.90;;;0.52;;
4808;SDS011;2418;49.930;8.606;2022-07-10T06:24:43;5.33;;;1.00;;
4808;SDS011;2418;49.930;8.606;2022-07-10T06:27:09;2.47;;;1.13;;
4808;SDS011;2418;49.930;8.606;2022-07-10T06:29:36;3.50;;;0.93;;
4808;SDS011;2418;49.930;8.606;2022-07-10T06:32:02;1.17;;;0.80;;
4808;SDS011;2418;49.930;8.606;2022-07-10T06:34:28;1.90;;;0.80;;
4808;SDS011;2418;49.930;8.606;2022-07-10T06:36:54;0.50;;;0.50;;
4808;SDS011;2418;49.930;8.606;2022-07-10T06:39:20;1.80;;;0.93;;
4808;SDS011;2418;49.930;8.606;2022-07-10T06:41:46;2.22;;;0.82;;
4808;SDS011;2418;49.930;8.606;2022-07-10T06:44:11;2.05;;;0.90;;
4808;SDS011;2418;49.930;8.606;2022-07-10T06:46:37;1.15;;;1.00;;
4808;SDS011;2418;49.930;8.606;2022-07-10T06:49:03;0.70;;;0.67;;
4808;SDS011;2418;49.930;8.606;2022-07-10T06:51:29;1.83;;;0.88;;
4808;SDS011;2418;49.930;8.606;2022-07-10T06:53:56;2.30;;;1.00;;
4808;SDS011;2418;49.930;8.606;2022-07-10T06:56:22;5.40;;;0.90;;
4808;SDS011;2418;49.930;8.606;2022-07-10T06:58:48;2.47;;;0.67;;
4808;SDS011;2418;49.930;8.606;2022-07-10T07:01:14;1.38;;;0.77;;
4808;SDS011;2418;49.930;8.606;2022-07-10T07:03:40;1.73;;;0.90;;
4808;SDS011;2418;49.930;8.606;2022-07-10T07:06:06;3.20;;;0.80;;
4808;SDS011;2418;49.930;8.606;2022-07-10T07:08:32;1.67;;;1.00;;
4808;SDS011;2418;49.930;8.606;2022-07-10T07:11:01;1.83;;;0.90;;
4808;SDS011;2418;49.930;8.606;2022-07-10T07:13:27;3.03;;;0.90;;
4808;SDS011;2418;49.930;8.606;2022-07-10T07:15:53;1.50;;;0.70;;
4808;SDS011;2418;49.930;8.606;2022-07-10T07:18:25;1.80;;;1.20;;
4808;SDS011;2418;49.930;8.606;2022-07-10T07:20:58;1.35;;;0.90;;
4808;SDS011;2418;49.930;8.606;2022-07-10T07:23:43;2.30;;;0.80;;
4808;SDS011;2418;49.930;8.606;2022-07-10T07:26:09;2.63;;;0.80;;
4808;SDS011;2418;49.930;8.606;2022-07-10T07:28:35;2.50;;;0.70;;
4808;SDS011;2418;49.930;8.606;2022-07-10T07:31:01;2.10;;;0.90;;
4808;SDS011;2418;49.930;8.606;2022-07-10T07:33:27;0.90;;;0.60;;
4808;SDS011;2418;49.930;8.606;2022-07-10T07:35:52;1.20;;;0.90;;
4808;SDS011;2418;49.930;8.606;2022-07-10T07:38:18;1.73;;;0.90;;
4808;SDS011;2418;49.930;8.606;2022-07-10T07:40:44;3.28;;;0.70;;
4808;SDS011;2418;49.930;8.606;2022-07-10T07:43:10;3.10;;;0.80;;
4808;SDS011;2418;49.930;8.606;2022-07-10T07:45:36;1.20;;;0.80;;
4808;SDS011;2418;49.930;8.606;2022-07-10T07:48:02;3.47;;;0.70;;
4808;SDS011;2418;49.930;8.606;2022-07-10T07:50:29;1.90;;;0.70;;
4808;SDS011;2418;49.930;8.606;2022-07-10T07:52:57;0.98;;;0.68;;
4808;SDS011;2418;49.930;8.606;2022-07-10T07:55:23;2.55;;;0.60;;
4808;SDS011;2418;49.930;8.606;2022-07-10T07:57:53;2.78;;;0.80;;
4808;SDS011;2418;49.930;8.606;2022-07-10T08:00:19;1.27;;;0.60;;
4808;SDS011;2418;49.930;8.606;2022-07-10T08:02:47;3.30;;;0.80;;
4808;SDS011;2418;49.930;8.606;2022-07-10T08:05:13;2.70;;;0.70;;
4808;SDS011;2418;49.930;8.606;2022-07-10T08:07:42;0.70;;;0.70;;
4808;SDS011;2418;49.930;8.606;2022-07-10T08:10:09;2.20;;;0.70;;
4808;SDS011;2418;49.930;8.606;2022-07-10T08:12:35;1.60;;;0.60;;
4808;SDS011;2418;49.930;8.606;2022-07-10T08:15:01;4.60;;;1.20;;
4808;SDS011;2418;49.930;8.606;2022-07-10T08:17:28;1.50;;;0.55;;
4808;SDS011;2418;49.930;8.606;2022-07-10T08:19:54;2.15;;;0.60;;
4808;SDS011;2418;49.930;8.606;2022-07-10T08:22:20;3.80;;;0.80;;
4808;SDS011;2418;49.930;8.606;2022-07-10T08:24:45;1.20;;;0.60;;
4808;SDS011;2418;49.930;8.606;2022-07-10T08:27:11;2.30;;;0.80;;
4808;SDS011;2418;49.930;8.606;2022-07-10T08:29:38;1.48;;;0.77;;
4808;SDS011;2418;49.930;8.606;2022-07-10T08:32:04;0.95;;;0.95;;
4808;SDS011;2418;49.930;8.606;2022-07-10T08:34:30;0.95;;;0.60;;
4808;SDS011;2418;49.930;8.606;2022-07-10T08:36:58;2.20;;;0.98;;
4808;SDS011;2418;49.930;8.606;2022-07-10T08:39:24;2.30;;;0.70;;
4808;SDS011;2418;49.930;8.606;2022-07-10T08:41:49;1.80;;;0.53;;
4808;SDS011;2418;49.930;8.606;2022-07-10T08:44:16;6.30;;;1.20;;
4808;SDS011;2418;49.930;8.606;2022-07-10T08:46:45;2.13;;;0.80;;
4808;SDS011;2418;49.930;8.606;2022-07-10T08:49:11;3.40;;;0.70;;
4808;SDS011;2418;49.930;8.606;2022-07-10T08:51:45;2.00;;;0.65;;
4808;SDS011;2418;49.930;8.606;2022-07-10T08:54:13;2.50;;;0.80;;
4808;SDS011;2418;49.930;8.606;2022-07-10T08:56:43;1.80;;;0.80;;
4808;SDS011;2418;49.930;8.606;2022-07-10T08:59:08;0.98;;;0.70;;
4808;SDS011;2418;49.930;8.606;2022-07-10T09:01:35;1.35;;;0.80;;
4808;SDS011;2418;49.930;8.606;2022-07-10T09:04:01;2.55;;;0.80;;
4808;SDS011;2418;49.930;8.606;2022-07-10T09:06:27;2.20;;;0.83;;
4808;SDS011;2418;49.930;8.606;2022-07-10T09:08:57;2.42;;;0.80;;
4808;SDS011;2418;49.930;8.606;2022-07-10T09:11:23;1.10;;;1.10;;
4808;SDS011;2418;49.930;8.606;2022-07-10T09:13:52;1.83;;;0.50;;
4808;SDS011;2418;49.930;8.606;2022-07-10T09:16:25;1.50;;;0.60;;
4808;SDS011;2418;49.930;8.606;2022-07-10T09:18:51;2.72;;;0.70;;
4808;SDS011;2418;49.930;8.606;2022-07-10T09:21:17;2.30;;;0.70;;
4808;SDS011;2418;49.930;8.606;2022-07-10T09:23:43;3.10;;;0.70;;
4808;SDS011;2418;49.930;8.606;2022-07-10T09:26:09;1.10;;;0.50;;
4808;SDS011;2418;49.930;8.606;2022-07-10T09:28:35;2.40;;;0.70;;
4808;SDS011;2418;49.930;8.606;2022-07-10T09:31:01;3.53;;;0.80;;
4808;SDS011;2418;49.930;8.606;2022-07-10T09:33:30;1.60;;;0.83;;
4808;SDS011;2418;49.930;8.606;2022-07-10T09:35:59;3.63;;;0.93;;
4808;SDS011;2418;49.930;8.606;2022-07-10T09:41:15;1.40;;;0.80;;
4808;SDS011;2418;49.930;8.606;2022-07-10T09:43:49;1.10;;;0.90;;
4808;SDS011;2418;49.930;8.606;2022-07-10T09:46:15;2.63;;;1.00;;
4808;SDS011;2418;49.930;8.606;2022-07-10T09:48:41;3.90;;;0.90;;
4808;SDS011;2418;49.930;8.606;2022-07-10T09:51:09;1.88;;;0.90;;
4808;SDS011;2418;49.930;8.606;2022-07-10T09:53:42;1.00;;;0.90;;
4808;SDS011;2418;49.930;8.606;2022-07-10T09:56:08;3.25;;;1.00;;
4808;SDS011;2418;49.930;8.606;2022-07-10T09:58:35;2.20;;;0.80;;
4808;SDS011;2418;49.930;8.606;2022-07-10T10:01:05;2.05;;;1.17;;
4808;SDS011;2418;49.930;8.606;2022-07-10T10:03:35;4.35;;;0.90;;
4808;SDS011;2418;49.930;8.606;2022-07-10T10:06:03;1.80;;;1.15;;
4808;SDS011;2418;49.930;8.606;2022-07-10T10:08:29;1.30;;;0.80;;
4808;SDS011;2418;49.930;8.606;2022-07-10T10:10:57;5.20;;;0.90;;
4808;SDS011;2418;49.930;8.606;2022-07-10T10:13:25;3.55;;;1.00;;
4808;SDS011;2418;49.930;8.606;2022-07-10T10:15:55;1.80;;;1.00;;
4808;SDS011;2418;49.930;8.606;2022-07-10T10:18:21;1.85;;;1.10;;
4808;SDS011;2418;49.930;8.606;2022-07-10T10:20:48;2.00;;;1.10;;
4808;SDS011;2418;49.930;8.606;2022-07-10T10:23:24;2.60;;;1.03;;
4808;SDS011;2418;49.930;8.606;2022-07-10T10:25:51;3.03;;;1.10;;
4808;SDS011;2418;49.930;8.606;2022-07-10T10:28:19;2.60;;;1.20;;
4808;SDS011;2418;49.930;8.606;2022-07-10T10:30:52;4.43;;;1.10;;
4808;SDS011;2418;49.930;8.606;2022-07-10T10:36:00;1.90;;;0.90;;
4808;SDS011;2418;49.930;8.606;2022-07-10T10:38:54;1.80;;;0.87;;
4808;SDS011;2418;49.930;8.606;2022-07-10T10:41:23;1.97;;;1.10;;
4808;SDS011;2418;49.930;8.606;2022-07-10T10:46:52;1.77;;;1.42;;
4808;SDS011;2418;49.930;8.606;2022-07-10T10:49:19;1.50;;;1.40;;
4808;SDS011;2418;49.930;8.606;2022-07-10T10:52:04;3.40;;;1.15;;
4808;SDS011;2418;49.930;8.606;2022-07-10T10:57:19;3.80;;;1.00;;
4808;SDS011;2418;49.930;8.606;2022-07-10T10:59:46;3.70;;;1.07;;
4808;SDS011;2418;49.930;8.606;2022-07-10T11:04:50;2.60;;;1.27;;
4808;SDS011;2418;49.930;8.606;2022-07-10T11:13:03;2.55;;;0.82;;
4808;SDS011;2418;49.930;8.606;2022-07-10T11:15:29;3.85;;;1.10;;
4808;SDS011;2418;49.930;8.606;2022-07-10T11:17:58;2.40;;;1.00;;
4808;SDS011;2418;49.930;8.606;2022-07-10T11:20:24;1.88;;;1.10;;
4808;SDS011;2418;49.930;8.606;2022-07-10T11:22:59;2.40;;;0.73;;
4808;SDS011;2418;49.930;8.606;2022-07-10T11:28:15;2.30;;;0.93;;
4808;SDS011;2418;49.930;8.606;2022-07-10T11:33:13;4.10;;;1.60;;
4808;SDS011;2418;49.930;8.606;2022-07-10T11:35:39;1.90;;;0.90;;
4808;SDS011;2418;49.930;8.606;2022-07-10T11:38:05;2.88;;;1.17;;
4808;SDS011;2418;49.930;8.606;2022-07-10T11:40:35;2.20;;;0.80;;
4808;SDS011;2418;49.930;8.606;2022-07-10T11:43:01;3.90;;;1.00;;
4808;SDS011;2418;49.930;8.606;2022-07-10T11:45:31;2.88;;;0.95;;
4808;SDS011;2418;49.930;8.606;2022-07-10T11:47:59;2.35;;;0.98;;
4808;SDS011;2418;49.930;8.606;2022-07-10T11:50:25;1.50;;;0.90;;
4808;SDS011;2418;49.930;8.606;2022-07-10T11:52:52;1.70;;;0.98;;
4808;SDS011;2418;49.930;8.606;2022-07-10T11:55:19;2.30;;;0.90;;
4808;SDS011;2418;49.930;8.606;2022-07-10T11:57:46;2.90;;;0.82;;
4808;SDS011;2418;49.930;8.606;2022-07-10T12:00:22;1.70;;;0.85;;
4808;SDS011;2418;49.930;8.606;2022-07-10T12:02:48;2.00;;;1.10;;
4808;SDS011;2418;49.930;8.606;2022-07-10T12:05:36;6.10;;;1.10;;
4808;SDS011;2418;49.930;8.606;2022-07-10T12:08:03;3.72;;;1.17;;
4808;SDS011;2418;49.930;8.606;2022-07-10T12:10:30;3.90;;;1.00;;
4808;SDS011;2418;49.930;8.606;2022-07-10T12:13:06;4.88;;;1.15;;
4808;SDS011;2418;49.930;8.606;2022-07-10T12:15:33;1.20;;;1.10;;
4808;SDS011;2418;49.930;8.606;2022-07-10T12:17:59;2.30;;;0.90;;
4808;SDS011;2418;49.930;8.606;2022-07-10T12:20:25;4.43;;;0.80;;
4808;SDS011;2418;49.930;8.606;2022-07-10T12:22:51;3.40;;;0.90;;
4808;SDS011;2418;49.930;8.606;2022-07-10T12:25:19;1.50;;;0.80;;
4808;SDS011;2418;49.930;8.606;2022-07-10T12:27:45;0.93;;;0.93;;
4808;SDS011;2418;49.930;8.606;2022-07-10T12:30:11;2.90;;;0.90;;
4808;SDS011;2418;49.930;8.606;2022-07-10T12:32:37;1.10;;;0.80;;
4808;SDS011;2418;49.930;8.606;2022-07-10T12:35:03;2.70;;;0.90;;
4808;SDS011;2418;49.930;8.606;2022-07-10T12:37:32;3.60;;;0.90;;
4808;SDS011;2418;49.930;8.606;2022-07-10T12:39:58;2.83;;;1.10;;
4808;SDS011;2418;49.930;8.606;2022-07-10T12:42:30;3.30;;;0.90;;
4808;SDS011;2418;49.930;8.606;2022-07-10T12:45:12;2.30;;;0.85;;
4808;SDS011;2418;49.930;8.606;2022-07-10T12:47:47;1.30;;;0.70;;
4808;SDS011;2418;49.930;8.606;2022-07-10T12:50:15;2.15;;;1.08;;
4808;SDS011;2418;49.930;8.606;2022-07-10T12:52:45;5.97;;;1.42;;
4808;SDS011;2418;49.930;8.606;2022-07-10T12:55:15;2.75;;;0.80;;
4808;SDS011;2418;49.930;8.606;2022-07-10T13:00:15;3.92;;;1.00;;
4808;SDS011;2418;49.930;8.606;2022-07-10T13:02:43;1.40;;;1.02;;
4808;SDS011;2418;49.930;8.606;2022-07-10T13:05:09;2.23;;;1.00;;
4808;SDS011;2418;49.930;8.606;2022-07-10T13:07:35;1.50;;;0.90;;
4808;SDS011;2418;49.930;8.606;2022-07-10T13:10:03;2.53;;;0.95;;
4808;SDS011;2418;49.930;8.606;2022-07-10T13:12:29;1.88;;;0.82;;
4808;SDS011;2418;49.930;8.606;2022-07-10T13:14:55;1.60;;;0.88;;
4808;SDS011;2418;49.930;8.606;2022-07-10T13:17:21;1.02;;;0.63;;
4808;SDS011;2418;49.930;8.606;2022-07-10T13:19:48;1.40;;;0.70;;
4808;SDS011;2418;49.930;8.606;2022-07-10T13:22:14;2.90;;;0.90;;
4808;SDS011;2418;49.930;8.606;2022-07-10T13:24:40;2.05;;;0.90;;
4808;SDS011;2418;49.930;8.606;2022-07-10T13:27:06;1.80;;;0.60;;
4808;SDS011;2418;49.930;8.606;2022-07-10T13:29:32;2.50;;;0.70;;
4808;SDS011;2418;49.930;8.606;2022-07-10T13:31:58;0.60;;;0.60;;
4808;SDS011;2418;49.930;8.606;2022-07-10T13:34:24;1.50;;;0.90;;
4808;SDS011;2418;49.930;8.606;2022-07-10T13:36:50;1.80;;;0.93;;
4808;SDS011;2418;49.930;8.606;2022-07-10T13:39:19;3.08;;;0.90;;
4808;SDS011;2418;49.930;8.606;2022-07-10T13:41:44;0.80;;;0.80;;
4808;SDS011;2418;49.930;8.606;2022-07-10T13:44:10;1.65;;;0.80;;
4808;SDS011;2418;49.930;8.606;2022-07-10T13:46:37;1.55;;;0.70;;
4808;SDS011;2418;49.930;8.606;2022-07-10T13:49:05;2.38;;;0.88;;
4808;SDS011;2418;49.930;8.606;2022-07-10T13:51:31;2.78;;;1.05;;
4808;SDS011;2418;49.930;8.606;2022-07-10T13:53:57;0.70;;;0.70;;
4808;SDS011;2418;49.930;8.606;2022-07-10T13:56:23;1.50;;;0.90;;
4808;SDS011;2418;49.930;8.606;2022-07-10T13:58:50;1.30;;;0.70;;
4808;SDS011;2418;49.930;8.606;2022-07-10T14:01:16;0.80;;;0.70;;
4808;SDS011;2418;49.930;8.606;2022-07-10T14:03:42;2.05;;;0.90;;
4808;SDS011;2418;49.930;8.606;2022-07-10T14:06:08;0.57;;;0.57;;
4808;SDS011;2418;49.930;8.606;2022-07-10T14:08:34;2.33;;;0.70;;
4808;SDS011;2418;49.930;8.606;2022-07-10T14:10:59;2.10;;;0.70;;
4808;SDS011;2418;49.930;8.606;2022-07-10T14:13:25;1.30;;;0.80;;
4808;SDS011;2418;49.930;8.606;2022-07-10T14:15:52;1.00;;;0.80;;
4808;SDS011;2418;49.930;8.606;2022-07-10T14:18:19;1.90;;;0.90;;
4808;SDS011;2418;49.930;8.606;2022-07-10T14:21:02;1.40;;;0.70;;
4808;SDS011;2418;49.930;8.606;2022-07-10T14:23:28;2.63;;;0.77;;
4808;SDS011;2418;49.930;8.606;2022-07-10T14:25:54;1.30;;;0.70;;
4808;SDS011;2418;49.930;8.606;2022-07-10T14:28:21;0.70;;;0.60;;
4808;SDS011;2418;49.930;8.606;2022-07-10T14:30:48;1.98;;;1.00;;
4808;SDS011;2418;49.930;8.606;2022-07-10T14:33:14;0.70;;;0.50;;
4808;SDS011;2418;49.930;8.606;2022-07-10T14:35:39;1.00;;;0.60;;
4808;SDS011;2418;49.930;8.606;2022-07-10T14:38:05;0.50;;;0.50;;
4808;SDS011;2418;49.930;8.606;2022-07-10T14:40:31;1.45;;;0.60;;
4808;SDS011;2418;49.930;8.606;2022-07-10T14:42:57;2.85;;;0.75;;
4808;SDS011;2418;49.930;8.606;2022-07-10T14:45:23;2.50;;;0.80;;
4808;SDS011;2418;49.930;8.606;2022-07-10T14:47:50;0.93;;;0.93;;
4808;SDS011;2418;49.930;8.606;2022-07-10T14:50:16;1.30;;;0.70;;
4808;SDS011;2418;49.930;8.606;2022-07-10T14:52:43;3.17;;;0.60;;
4808;SDS011;2418;49.930;8.606;2022-07-10T14:55:09;1.00;;;0.70;;
4808;SDS011;2418;49.930;8.606;2022-07-10T14:57:35;1.40;;;0.68;;
4808;SDS011;2418;49.930;8.606;2022-07-10T15:00:00;2.90;;;1.10;;
4808;SDS011;2418;49.930;8.606;2022-07-10T15:02:27;0.70;;;0.70;;
4808;SDS011;2418;49.930;8.606;2022-07-10T15:04:53;0.70;;;0.50;;
4808;SDS011;2418;49.930;8.606;2022-07-10T15:07:19;0.50;;;0.50;;
4808;SDS011;2418;49.930;8.606;2022-07-10T15:09:45;2.40;;;0.70;;
4808;SDS011;2418;49.930;8.606;2022-07-10T15:12:11;2.70;;;0.50;;
4808;SDS011;2418;49.930;8.606;2022-07-10T15:14:37;1.30;;;0.60;;
4808;SDS011;2418;49.930;8.606;2022-07-10T15:17:03;1.17;;;0.57;;
4808;SDS011;2418;49.930;8.606;2022-07-10T15:19:29;0.68;;;0.57;;
4808;SDS011;2418;49.930;8.606;2022-07-10T15:21:55;2.60;;;0.80;;
4808;SDS011;2418;49.930;8.606;2022-07-10T15:24:21;0.90;;;0.57;;
4808;SDS011;2418;49.930;8.606;2022-07-10T15:26:47;1.17;;;0.70;;
4808;SDS011;2418;49.930;8.606;2022-07-10T15:29:13;7.20;;;4.60;;
4808;SDS011;2418;49.930;8.606;2022-07-10T15:31:39;3.97;;;3.67;;
4808;SDS011;2418;49.930;8.606;2022-07-10T15:34:08;1.73;;;1.30;;
4808;SDS011;2418;49.930;8.606;2022-07-10T15:36:35;2.10;;;0.70;;
4808;SDS011;2418;49.930;8.606;2022-07-10T15:39:01;1.10;;;0.70;;
4808;SDS011;2418;49.930;8.606;2022-07-10T15:41:27;4.50;;;0.60;;